Time;durP1;ratioP1;P1;durP2;ratioP2;P2;SDS_P1;SDS_P2;PMS_P1;PMS_P2;Temp;Humidity;BMP_temperature;BMP_pressure;BME280_temperature;BME280_humidity;BME280_pressure;Samples;Min_cycle;Max_cycle;Signal;HPM_P1;HPM_P2
2021/05/07 00:00:54;;;;;;;7.35;4.03;;;;;;;;;;5078499;28;20037;-82
2021/05/07 00:03:20;;;;;;;8.13;4.60;;;;;;;;;;5079333;28;20033;-82
2021/05/07 00:05:54;;;;;;;7.75;4.35;;;;;;;;;;5078751;28;20033;-83
2021/05/07 00:08:21;;;;;;;11.00;4.22;;;;;;;;;;5078734;28;20079;-83
2021/05/07 00:10:47;;;;;;;8.23;3.97;;;;;;;;;;5079365;28;20310;-82
2021/05/07 00:13:13;;;;;;;5.53;3.47;;;;;;;;;;5078777;28;20032;-81
2021/05/07 00:15:39;;;;;;;8.60;4.90;;;;;;;;;;5077861;28;20325;-81
2021/05/07 00:18:05;;;;;;;7.90;4.00;;;;;;;;;;5078972;28;20025;-81
2021/05/07 00:20:31;;;;;;;10.00;5.10;;;;;;;;;;5078613;28;20334;-81
2021/05/07 00:22:57;;;;;;;7.90;4.07;;;;;;;;;;5077924;28;20338;-81
2021/05/07 00:25:23;;;;;;;6.97;3.83;;;;;;;;;;5078839;28;20369;-81
2021/05/07 00:27:57;;;;;;;8.70;4.63;;;;;;;;;;5077554;28;20024;-81
2021/05/07 00:30:23;;;;;;;9.13;4.63;;;;;;;;;;5078751;28;20020;-81
2021/05/07 00:32:49;;;;;;;9.43;4.30;;;;;;;;;;5078493;28;20108;-82
2021/05/07 00:35:15;;;;;;;9.98;4.43;;;;;;;;;;5078519;28;20020;-81
2021/05/07 00:37:41;;;;;;;4.63;3.67;;;;;;;;;;5078533;28;20393;-81
2021/05/07 00:40:07;;;;;;;6.47;4.00;;;;;;;;;;5060391;28;20055;-82
2021/05/07 00:42:34;;;;;;;10.05;4.75;;;;;;;;;;5078598;28;20056;-82
2021/05/07 00:45:00;;;;;;;5.15;3.65;;;;;;;;;;5078196;28;20031;-82
2021/05/07 00:47:26;;;;;;;6.00;3.83;;;;;;;;;;5077251;28;20135;-81
2021/05/07 00:49:52;;;;;;;6.20;3.80;;;;;;;;;;5078256;28;20028;-82
2021/05/07 00:52:18;;;;;;;6.45;3.90;;;;;;;;;;5078232;28;20346;-81
2021/05/07 00:54:44;;;;;;;8.68;3.60;;;;;;;;;;5077706;28;20032;-82
2021/05/07 00:57:10;;;;;;;5.85;3.65;;;;;;;;;;5078001;28;20063;-82
2021/05/07 00:59:37;;;;;;;6.72;3.97;;;;;;;;;;5078087;28;20050;-82
2021/05/07 01:02:03;;;;;;;7.05;4.15;;;;;;;;;;5077995;28;20024;-81
2021/05/07 01:04:29;;;;;;;6.72;4.00;;;;;;;;;;5078018;28;20024;-81
2021/05/07 01:06:55;;;;;;;5.93;3.60;;;;;;;;;;5077636;28;20052;-81
2021/05/07 01:09:21;;;;;;;5.40;3.60;;;;;;;;;;5077832;28;20025;-81
2021/05/07 01:11:48;;;;;;;6.13;3.90;;;;;;;;;;5078079;28;20028;-81
2021/05/07 01:14:14;;;;;;;6.70;3.50;;;;;;;;;;5077795;28;20309;-81
2021/05/07 01:16:40;;;;;;;4.95;3.67;;;;;;;;;;5077867;28;20040;-81
2021/05/07 01:19:06;;;;;;;8.13;4.63;;;;;;;;;;5076962;28;20075;-81
2021/05/07 01:21:33;;;;;;;5.57;3.72;;;;;;;;;;5077674;28;20028;-81
2021/05/07 01:23:59;;;;;;;7.72;4.50;;;;;;;;;;5076514;28;20040;-80
2021/05/07 01:26:25;;;;;;;6.53;3.88;;;;;;;;;;5077575;28;20292;-81
2021/05/07 01:28:51;;;;;;;9.88;4.10;;;;;;;;;;5077344;28;20095;-81
2021/05/07 01:31:18;;;;;;;5.75;3.95;;;;;;;;;;5077548;28;20029;-81
2021/05/07 01:33:44;;;;;;;7.35;3.90;;;;;;;;;;5077209;28;20056;-81
2021/05/07 01:36:10;;;;;;;5.18;3.30;;;;;;;;;;5077399;28;20390;-81
2021/05/07 01:38:36;;;;;;;5.15;3.45;;;;;;;;;;5076909;28;20409;-81
2021/05/07 01:41:03;;;;;;;4.85;3.50;;;;;;;;;;5077320;28;20087;-82
2021/05/07 01:43:31;;;;;;;6.25;3.55;;;;;;;;;;5076316;28;20109;-82
2021/05/07 01:45:57;;;;;;;6.05;3.72;;;;;;;;;;5077464;28;20031;-82
2021/05/07 01:48:23;;;;;;;6.32;3.97;;;;;;;;;;5077338;28;20111;-82
2021/05/07 01:50:50;;;;;;;6.20;3.55;;;;;;;;;;5077325;28;20020;-82
2021/05/07 01:53:16;;;;;;;8.95;3.83;;;;;;;;;;5076057;28;20406;-81
2021/05/07 01:55:44;;;;;;;4.45;3.10;;;;;;;;;;5077313;28;20115;-81
2021/05/07 01:58:13;;;;;;;6.38;3.63;;;;;;;;;;5077357;28;20315;-81
2021/05/07 02:00:40;;;;;;;5.90;3.97;;;;;;;;;;5077154;28;20112;-81
2021/05/07 02:03:07;;;;;;;7.88;4.55;;;;;;;;;;5077055;28;20052;-81
2021/05/07 02:05:33;;;;;;;8.73;4.35;;;;;;;;;;5077014;28;20414;-82
2021/05/07 02:08:03;;;;;;;6.45;3.95;;;;;;;;;;5076446;28;20484;-82
2021/05/07 02:10:30;;;;;;;5.70;3.40;;;;;;;;;;5077096;28;20349;-81
2021/05/07 02:12:57;;;;;;;8.95;4.05;;;;;;;;;;5076912;28;20050;-81
2021/05/07 02:15:23;;;;;;;7.03;3.97;;;;;;;;;;5076974;28;20028;-81
2021/05/07 02:17:50;;;;;;;5.97;3.92;;;;;;;;;;5076903;28;20016;-82
2021/05/07 02:20:17;;;;;;;7.57;4.20;;;;;;;;;;5076961;28;20028;-81
2021/05/07 02:22:44;;;;;;;11.23;3.97;;;;;;;;;;5076793;28;20028;-81
2021/05/07 02:25:10;;;;;;;6.88;4.20;;;;;;;;;;5076492;28;20028;-82
2021/05/07 02:27:37;;;;;;;9.38;4.40;;;;;;;;;;5076663;28;20025;-82
2021/05/07 02:30:04;;;;;;;7.65;4.53;;;;;;;;;;5078620;28;20024;-82
2021/05/07 02:32:30;;;;;;;6.53;4.22;;;;;;;;;;5080959;28;20059;-82
2021/05/07 02:34:56;;;;;;;7.50;4.95;;;;;;;;;;5081027;28;20021;-83
2021/05/07 02:37:22;;;;;;;8.50;4.53;;;;;;;;;;5080834;28;20044;-82
2021/05/07 02:39:48;;;;;;;10.75;4.28;;;;;;;;;;5080737;28;20032;-83
2021/05/07 02:42:14;;;;;;;5.22;3.95;;;;;;;;;;5081016;28;20036;-83
2021/05/07 02:44:40;;;;;;;5.97;4.40;;;;;;;;;;5080676;28;20029;-82
2021/05/07 02:47:06;;;;;;;7.22;4.28;;;;;;;;;;5080652;28;20024;-82
2021/05/07 02:49:33;;;;;;;8.52;4.45;;;;;;;;;;5080564;28;20498;-83
2021/05/07 02:52:01;;;;;;;7.28;4.93;;;;;;;;;;5080575;28;20032;-83
2021/05/07 02:54:27;;;;;;;8.52;4.05;;;;;;;;;;5080745;28;20323;-83
2021/05/07 02:56:53;;;;;;;5.88;4.07;;;;;;;;;;5080687;28;20040;-83
2021/05/07 02:59:20;;;;;;;9.15;4.28;;;;;;;;;;5079573;28;20027;-83
2021/05/07 03:01:46;;;;;;;9.73;4.03;;;;;;;;;;5080486;28;20027;-83
2021/05/07 03:04:12;;;;;;;9.82;4.63;;;;;;;;;;5080226;28;20092;-82
2021/05/07 03:06:38;;;;;;;7.80;4.65;;;;;;;;;;5080133;28;20116;-82
2021/05/07 03:09:04;;;;;;;10.85;4.55;;;;;;;;;;5080024;28;20070;-82
2021/05/07 03:11:31;;;;;;;6.63;4.18;;;;;;;;;;5080102;28;20099;-81
2021/05/07 03:13:57;;;;;;;8.63;4.32;;;;;;;;;;5080195;28;20314;-81
2021/05/07 03:16:23;;;;;;;6.05;4.22;;;;;;;;;;5080278;28;20348;-81
2021/05/07 03:18:50;;;;;;;9.75;3.97;;;;;;;;;;5079997;28;20028;-81
2021/05/07 03:21:16;;;;;;;5.78;3.90;;;;;;;;;;5079048;28;20410;-81
2021/05/07 03:23:42;;;;;;;8.45;4.05;;;;;;;;;;5079870;28;20503;-81
2021/05/07 03:26:08;;;;;;;13.82;4.38;;;;;;;;;;5080072;28;20016;-82
2021/05/07 03:28:34;;;;;;;7.18;4.00;;;;;;;;;;5079561;28;20056;-81
2021/05/07 03:31:00;;;;;;;8.00;4.20;;;;;;;;;;5079787;28;20028;-81
2021/05/07 03:33:27;;;;;;;10.25;4.00;;;;;;;;;;5079721;28;20017;-81
2021/05/07 03:35:53;;;;;;;9.38;4.70;;;;;;;;;;5078780;28;20334;-82
2021/05/07 03:38:19;;;;;;;6.65;3.78;;;;;;;;;;5078629;28;20411;-82
2021/05/07 03:40:45;;;;;;;6.65;3.92;;;;;;;;;;5079111;28;20119;-82
2021/05/07 03:43:11;;;;;;;7.80;3.67;;;;;;;;;;5079242;28;20020;-82
2021/05/07 03:45:37;;;;;;;10.45;4.25;;;;;;;;;;5079490;28;20024;-81
2021/05/07 03:48:13;;;;;;;8.10;3.78;;;;;;;;;;5079112;28;20028;-81
2021/05/07 03:50:39;;;;;;;9.27;4.07;;;;;;;;;;5079140;28;20017;-82
2021/05/07 03:53:05;;;;;;;7.63;4.22;;;;;;;;;;5078195;28;20021;-82
2021/05/07 03:55:31;;;;;;;8.07;4.00;;;;;;;;;;5079222;28;20399;-82
2021/05/07 03:57:58;;;;;;;7.82;4.13;;;;;;;;;;5079248;28;20422;-81
2021/05/07 04:00:25;;;;;;;7.47;3.65;;;;;;;;;;5079373;28;20356;-81
2021/05/07 04:02:51;;;;;;;8.80;3.85;;;;;;;;;;5079055;28;20043;-81
2021/05/07 04:05:17;;;;;;;10.48;4.55;;;;;;;;;;5078984;28;20032;-83
2021/05/07 04:07:44;;;;;;;6.07;4.20;;;;;;;;;;5078776;28;20044;-83
2021/05/07 04:10:18;;;;;;;11.45;4.63;;;;;;;;;;5079343;28;20342;-83
2021/05/07 04:15:14;;;;;;;10.10;4.72;;;;;;;;;;5078941;28;20032;-83
2021/05/07 04:17:40;;;;;;;9.85;4.57;;;;;;;;;;5078919;28;20025;-82
2021/05/07 04:20:07;;;;;;;6.20;4.10;;;;;;;;;;5078855;28;20046;-83
2021/05/07 04:22:33;;;;;;;12.77;4.63;;;;;;;;;;5078640;28;20037;-82
2021/05/07 04:24:59;;;;;;;10.63;4.43;;;;;;;;;;5078812;28;20103;-82
2021/05/07 04:27:25;;;;;;;8.23;4.22;;;;;;;;;;5077557;28;20086;-82
2021/05/07 04:29:52;;;;;;;8.98;4.78;;;;;;;;;;5078633;28;20025;-82
2021/05/07 04:32:18;;;;;;;8.85;4.05;;;;;;;;;;5078516;28;20040;-82
2021/05/07 04:34:44;;;;;;;18.27;5.35;;;;;;;;;;5078629;28;20082;-83
2021/05/07 04:37:10;;;;;;;14.60;4.63;;;;;;;;;;5077361;28;20025;-81
2021/05/07 04:39:36;;;;;;;13.15;4.75;;;;;;;;;;5078672;28;20024;-81
2021/05/07 04:42:02;;;;;;;9.13;4.90;;;;;;;;;;5078686;28;20025;-81
2021/05/07 04:44:28;;;;;;;8.23;4.43;;;;;;;;;;5078453;28;20052;-81
2021/05/07 04:46:54;;;;;;;10.77;5.05;;;;;;;;;;5078262;28;20024;-81
2021/05/07 04:49:20;;;;;;;8.15;4.85;;;;;;;;;;5078113;28;20024;-81
2021/05/07 04:51:47;;;;;;;15.45;5.88;;;;;;;;;;5078116;28;20024;-81
2021/05/07 04:54:13;;;;;;;12.80;5.68;;;;;;;;;;5077734;28;20391;-81
2021/05/07 04:56:39;;;;;;;10.75;6.32;;;;;;;;;;5078231;28;20017;-81
2021/05/07 04:59:05;;;;;;;8.45;5.88;;;;;;;;;;5077976;28;20027;-81
2021/05/07 05:01:31;;;;;;;14.38;6.05;;;;;;;;;;5078035;28;20016;-81
2021/05/07 05:03:57;;;;;;;10.13;5.55;;;;;;;;;;5077845;28;20395;-81
2021/05/07 05:06:23;;;;;;;14.98;6.28;;;;;;;;;;5076958;28;20426;-82
2021/05/07 05:08:49;;;;;;;16.45;6.50;;;;;;;;;;5077693;28;20414;-82
2021/05/07 05:11:15;;;;;;;12.85;6.70;;;;;;;;;;5077828;28;20050;-82
2021/05/07 05:13:41;;;;;;;21.30;8.07;;;;;;;;;;5077862;28;20490;-82
2021/05/07 05:16:07;;;;;;;33.58;15.95;;;;;;;;;;5077722;28;20035;-81
2021/05/07 05:18:34;;;;;;;37.13;17.92;;;;;;;;;;5077675;28;20415;-82
2021/05/07 05:21:01;;;;;;;22.42;11.30;;;;;;;;;;5076888;28;20074;-81
2021/05/07 05:23:28;;;;;;;35.10;15.50;;;;;;;;;;5077474;28;20040;-81
2021/05/07 05:25:54;;;;;;;26.10;11.05;;;;;;;;;;5077566;28;20028;-81
2021/05/07 05:28:20;;;;;;;22.63;9.40;;;;;;;;;;5076667;28;20043;-81
2021/05/07 05:30:47;;;;;;;15.82;7.85;;;;;;;;;;5077021;28;20032;-81
2021/05/07 05:33:13;;;;;;;16.90;7.75;;;;;;;;;;5076388;28;20039;-81
2021/05/07 05:35:39;;;;;;;21.70;7.30;;;;;;;;;;5077543;28;20039;-81
2021/05/07 05:38:05;;;;;;;13.48;7.88;;;;;;;;;;5077284;28;20049;-82
2021/05/07 05:40:32;;;;;;;36.13;21.83;;;;;;;;;;5077514;28;20066;-81
2021/05/07 05:42:58;;;;;;;22.25;14.30;;;;;;;;;;5077425;28;20021;-82
2021/05/07 05:45:25;;;;;;;19.20;14.07;;;;;;;;;;5077602;28;20055;-82
2021/05/07 05:48:08;;;;;;;22.20;14.00;;;;;;;;;;5076321;28;20349;-82
2021/05/07 05:50:34;;;;;;;23.05;16.27;;;;;;;;;;5077265;28;20104;-81
2021/05/07 05:53:00;;;;;;;19.77;11.25;;;;;;;;;;5077482;28;20399;-80
2021/05/07 05:55:27;;;;;;;14.43;8.95;;;;;;;;;;5077292;28;20028;-82
2021/05/07 05:57:53;;;;;;;79.93;50.35;;;;;;;;;;5077119;28;20107;-81
2021/05/07 06:00:20;;;;;;;42.88;30.65;;;;;;;;;;5077211;28;20031;-81
2021/05/07 06:02:46;;;;;;;24.92;16.70;;;;;;;;;;5076116;28;20119;-81
2021/05/07 06:05:12;;;;;;;18.00;8.55;;;;;;;;;;5076630;28;20161;-82
2021/05/07 06:07:39;;;;;;;16.58;7.40;;;;;;;;;;5076665;28;20055;-81
2021/05/07 06:10:06;;;;;;;17.60;8.20;;;;;;;;;;5076895;28;20115;-82
2021/05/07 06:12:33;;;;;;;20.05;8.43;;;;;;;;;;5076905;28;20027;-81
2021/05/07 06:14:59;;;;;;;14.02;6.32;;;;;;;;;;5077100;28;20029;-81
2021/05/07 06:17:25;;;;;;;17.05;6.15;;;;;;;;;;5076135;28;20296;-82
2021/05/07 06:19:51;;;;;;;15.13;6.43;;;;;;;;;;5077205;28;20025;-82
2021/05/07 06:22:17;;;;;;;17.33;6.60;;;;;;;;;;5077067;28;20080;-82
2021/05/07 06:24:43;;;;;;;20.25;6.97;;;;;;;;;;5077231;28;20353;-82
2021/05/07 06:27:09;;;;;;;13.93;6.22;;;;;;;;;;5076976;28;20025;-82
2021/05/07 06:29:35;;;;;;;17.92;6.68;;;;;;;;;;5076232;28;20346;-81
2021/05/07 06:32:01;;;;;;;19.48;7.65;;;;;;;;;;5075790;28;20051;-82
2021/05/07 06:34:27;;;;;;;17.60;6.57;;;;;;;;;;5075984;28;20032;-82
2021/05/07 06:36:53;;;;;;;18.48;7.63;;;;;;;;;;5076001;28;20032;-83
2021/05/07 06:39:19;;;;;;;28.63;12.93;;;;;;;;;;5076140;28;20037;-83
2021/05/07 06:41:45;;;;;;;19.70;7.68;;;;;;;;;;5076873;28;20107;-81
2021/05/07 06:44:12;;;;;;;14.10;5.45;;;;;;;;;;5076639;28;20016;-81
2021/05/07 06:46:38;;;;;;;13.18;4.28;;;;;;;;;;5076859;28;20051;-81
2021/05/07 06:49:04;;;;;;;16.67;4.38;;;;;;;;;;5075591;28;20032;-82
2021/05/07 06:51:30;;;;;;;8.30;3.60;;;;;;;;;;5076646;28;20339;-82
2021/05/07 06:53:58;;;;;;;12.43;4.60;;;;;;;;;;5077108;28;20041;-83
2021/05/07 06:56:24;;;;;;;15.05;4.45;;;;;;;;;;5076310;28;20051;-83
2021/05/07 06:58:50;;;;;;;12.73;5.03;;;;;;;;;;5076997;28;20021;-83
2021/05/07 07:01:17;;;;;;;30.58;4.78;;;;;;;;;;5075690;28;20032;-83
2021/05/07 07:03:43;;;;;;;17.05;4.45;;;;;;;;;;5076755;28;20055;-84
2021/05/07 07:06:09;;;;;;;6.63;3.33;;;;;;;;;;5075641;28;20418;-84
2021/05/07 07:08:35;;;;;;;10.60;3.97;;;;;;;;;;5077062;28;20381;-84
2021/05/07 07:11:01;;;;;;;11.63;3.50;;;;;;;;;;5076030;28;20036;-84
2021/05/07 07:13:28;;;;;;;7.90;3.50;;;;;;;;;;5076030;28;20040;-84
2021/05/07 07:15:54;;;;;;;6.85;3.45;;;;;;;;;;5077058;28;20314;-84
2021/05/07 07:18:21;;;;;;;15.25;5.00;;;;;;;;;;5079283;28;20044;-84
2021/05/07 07:20:48;;;;;;;10.00;3.60;;;;;;;;;;5079921;28;20039;-84
2021/05/07 07:23:14;;;;;;;8.65;3.40;;;;;;;;;;5080025;28;20066;-83
2021/05/07 07:25:41;;;;;;;7.43;2.20;;;;;;;;;;5079394;28;20099;-84
2021/05/07 07:28:07;;;;;;;2.92;1.70;;;;;;;;;;5078893;28;20060;-83
2021/05/07 07:30:34;;;;;;;12.02;2.30;;;;;;;;;;5078714;28;20025;-82
2021/05/07 07:33:00;;;;;;;10.30;2.20;;;;;;;;;;5079792;28;20436;-81
2021/05/07 07:35:27;;;;;;;8.60;2.85;;;;;;;;;;5079726;28;20071;-81
2021/05/07 07:37:53;;;;;;;5.15;2.00;;;;;;;;;;5078829;28;20127;-81
2021/05/07 07:40:19;;;;;;;7.03;2.15;;;;;;;;;;5079856;28;20099;-82
2021/05/07 07:42:45;;;;;;;7.38;2.10;;;;;;;;;;5079784;28;20021;-81
2021/05/07 07:45:12;;;;;;;7.70;2.15;;;;;;;;;;5078319;28;20048;-81
2021/05/07 07:47:38;;;;;;;5.72;3.72;;;;;;;;;;5078736;28;20020;-83
2021/05/07 07:50:04;;;;;;;12.75;5.82;;;;;;;;;;5079390;28;20024;-83
2021/05/07 07:52:32;;;;;;;10.20;5.15;;;;;;;;;;5079390;28;20017;-83
2021/05/07 07:54:59;;;;;;;12.63;6.68;;;;;;;;;;5078557;28;20032;-83
2021/05/07 07:57:25;;;;;;;7.10;3.63;;;;;;;;;;5079593;28;20033;-83
2021/05/07 07:59:51;;;;;;;9.35;2.72;;;;;;;;;;5079552;28;20025;-84
2021/05/07 08:02:17;;;;;;;6.35;2.85;;;;;;;;;;5079367;28;20058;-83
2021/05/07 08:04:43;;;;;;;5.00;1.90;;;;;;;;;;5079276;28;20033;-83
2021/05/07 08:07:12;;;;;;;6.95;2.33;;;;;;;;;;5078705;28;20041;-83
2021/05/07 08:09:38;;;;;;;9.50;5.00;;;;;;;;;;5079397;28;20292;-83
2021/05/07 08:12:04;;;;;;;16.27;6.43;;;;;;;;;;5078314;28;20374;-84
2021/05/07 08:14:30;;;;;;;12.50;6.90;;;;;;;;;;5078814;28;20047;-83
2021/05/07 08:16:57;;;;;;;22.67;12.23;;;;;;;;;;5079012;28;20070;-82
2021/05/07 08:19:23;;;;;;;23.30;13.70;;;;;;;;;;5079037;28;20035;-83
2021/05/07 08:21:49;;;;;;;7.53;3.70;;;;;;;;;;5078959;28;20059;-82
2021/05/07 08:24:15;;;;;;;21.92;14.05;;;;;;;;;;5079021;28;20029;-82
2021/05/07 08:26:41;;;;;;;13.07;7.40;;;;;;;;;;5079095;28;20066;-83
2021/05/07 08:29:07;;;;;;;35.72;23.77;;;;;;;;;;5078276;28;20056;-83
2021/05/07 08:31:33;;;;;;;29.77;19.30;;;;;;;;;;5078019;28;20033;-83
2021/05/07 08:33:59;;;;;;;23.48;13.88;;;;;;;;;;5077752;28;20060;-83
2021/05/07 08:36:26;;;;;;;13.85;8.88;;;;;;;;;;5077940;28;20051;-83
2021/05/07 08:38:52;;;;;;;24.55;15.50;;;;;;;;;;5078679;28;20031;-84
2021/05/07 08:41:18;;;;;;;32.22;21.23;;;;;;;;;;5078749;28;20056;-82
2021/05/07 08:43:44;;;;;;;17.63;9.20;;;;;;;;;;5078607;28;20029;-82
2021/05/07 08:46:12;;;;;;;14.82;8.57;;;;;;;;;;5078355;28;20028;-83
2021/05/07 08:48:39;;;;;;;7.93;3.50;;;;;;;;;;5077714;28;20119;-82
2021/05/07 08:51:05;;;;;;;23.02;12.35;;;;;;;;;;5078526;28;20035;-83
2021/05/07 08:53:32;;;;;;;8.85;4.28;;;;;;;;;;5078299;28;20021;-84
2021/05/07 08:56:02;;;;;;;23.83;13.65;;;;;;;;;;5078566;28;20362;-83
2021/05/07 08:58:28;;;;;;;6.93;3.80;;;;;;;;;;5078145;28;20028;-83
2021/05/07 09:00:54;;;;;;;5.75;2.33;;;;;;;;;;5077919;28;20036;-81
2021/05/07 09:03:20;;;;;;;5.25;1.73;;;;;;;;;;5078104;28;20047;-82
2021/05/07 09:05:46;;;;;;;7.15;1.92;;;;;;;;;;5078036;28;20029;-82
2021/05/07 09:08:12;;;;;;;6.53;1.83;;;;;;;;;;5077793;28;20033;-81
2021/05/07 09:10:42;;;;;;;5.20;2.00;;;;;;;;;;5077915;28;20025;-82
2021/05/07 09:13:09;;;;;;;9.15;2.63;;;;;;;;;;5077979;28;20025;-81
2021/05/07 09:15:45;;;;;;;6.55;2.03;;;;;;;;;;5077822;28;20032;-81
2021/05/07 09:18:12;;;;;;;4.90;1.63;;;;;;;;;;5077688;28;20081;-84
2021/05/07 09:20:38;;;;;;;4.47;1.60;;;;;;;;;;5077648;28;20422;-81
2021/05/07 09:23:05;;;;;;;4.72;1.70;;;;;;;;;;5077466;28;20472;-80
2021/05/07 09:25:31;;;;;;;5.53;1.48;;;;;;;;;;5077608;28;20415;-81
2021/05/07 09:28:08;;;;;;;4.15;1.80;;;;;;;;;;5076781;28;20390;-80
2021/05/07 09:30:34;;;;;;;4.10;1.63;;;;;;;;;;5076117;28;20066;-81
2021/05/07 09:33:05;;;;;;;6.30;1.92;;;;;;;;;;5077594;28;20021;-81
2021/05/07 09:35:31;;;;;;;3.00;1.75;;;;;;;;;;5077307;28;20457;-81
2021/05/07 09:38:07;;;;;;;5.18;2.92;;;;;;;;;;5076388;28;20312;-81
2021/05/07 09:40:34;;;;;;;6.38;1.58;;;;;;;;;;5076811;28;20028;-80
2021/05/07 09:43:20;;;;;;;3.83;1.30;;;;;;;;;;5076823;28;20041;-80
2021/05/07 09:45:50;;;;;;;7.25;1.67;;;;;;;;;;5076059;28;20024;-80
2021/05/07 09:48:20;;;;;;;6.97;1.70;;;;;;;;;;5077632;28;20310;-80
2021/05/07 09:50:47;;;;;;;6.18;1.63;;;;;;;;;;5077366;28;20020;-80
2021/05/07 09:53:20;;;;;;;6.65;1.80;;;;;;;;;;5076447;28;20342;-80
2021/05/07 09:55:51;;;;;;;7.38;1.70;;;;;;;;;;5076155;28;20020;-80
2021/05/07 09:58:17;;;;;;;5.65;1.63;;;;;;;;;;5077109;28;20044;-80
2021/05/07 10:00:44;;;;;;;6.22;1.52;;;;;;;;;;5076972;28;20029;-80
2021/05/07 10:03:10;;;;;;;8.27;2.28;;;;;;;;;;5077095;28;20095;-80
2021/05/07 10:05:36;;;;;;;11.20;4.30;;;;;;;;;;5077254;28;20048;-80
2021/05/07 10:08:03;;;;;;;13.82;6.60;;;;;;;;;;5075902;28;20060;-79
2021/05/07 10:10:38;;;;;;;10.73;5.47;;;;;;;;;;5076928;28;20358;-80
2021/05/07 10:13:05;;;;;;;11.60;5.93;;;;;;;;;;5077049;28;20158;-79
2021/05/07 10:15:36;;;;;;;20.58;13.27;;;;;;;;;;5076910;28;20021;-84
2021/05/07 10:18:03;;;;;;;7.88;5.45;;;;;;;;;;5077747;28;20036;-80
2021/05/07 10:20:40;;;;;;;17.25;10.93;;;;;;;;;;5095498;28;20035;-80
2021/05/07 10:23:16;;;;;;;20.85;10.50;;;;;;;;;;5083161;28;20021;-80
2021/05/07 10:25:52;;;;;;;89.22;54.03;;;;;;;;;;5090290;28;20036;-79
2021/05/07 10:28:18;;;;;;;39.03;19.73;;;;;;;;;;5096176;28;20036;-79
2021/05/07 10:30:45;;;;;;;14.15;9.00;;;;;;;;;;5081289;28;20027;-79
2021/05/07 10:33:17;;;;;;;63.13;26.67;;;;;;;;;;5087019;28;20021;-81
2021/05/07 10:35:43;;;;;;;97.65;37.55;;;;;;;;;;5076735;28;20028;-80
2021/05/07 10:38:13;;;;;;;149.25;48.70;;;;;;;;;;5076725;28;20024;-80
2021/05/07 10:40:40;;;;;;;89.35;29.83;;;;;;;;;;5077677;28;20135;-83
2021/05/07 10:43:06;;;;;;;142.70;48.92;;;;;;;;;;5076575;28;20051;-78
2021/05/07 10:45:38;;;;;;;89.10;30.30;;;;;;;;;;5075526;28;20489;-80
2021/05/07 10:48:14;;;;;;;22.67;11.50;;;;;;;;;;5076457;28;20452;-81
2021/05/07 10:50:40;;;;;;;30.73;12.35;;;;;;;;;;5077681;28;20096;-77
2021/05/07 10:53:07;;;;;;;41.95;17.73;;;;;;;;;;5080557;28;20016;-81
2021/05/07 10:55:34;;;;;;;110.18;41.65;;;;;;;;;;5080268;28;20025;-80
2021/05/07 10:58:05;;;;;;;19.00;9.27;;;;;;;;;;5080948;28;20021;-80
2021/05/07 11:00:39;;;;;;;148.85;65.22;;;;;;;;;;5079889;28;20036;-84
2021/05/07 11:03:06;;;;;;;80.25;33.63;;;;;;;;;;5080907;28;20094;-82
2021/05/07 11:05:51;;;;;;;76.97;28.85;;;;;;;;;;5080436;28;20028;-83
2021/05/07 11:08:17;;;;;;;28.88;13.23;;;;;;;;;;5080377;28;20036;-83
2021/05/07 11:10:43;;;;;;;103.13;40.80;;;;;;;;;;5080431;28;20065;-83
2021/05/07 11:13:10;;;;;;;66.93;24.77;;;;;;;;;;5080271;28;20021;-80
2021/05/07 11:15:36;;;;;;;56.70;26.90;;;;;;;;;;5080112;28;20100;-82
2021/05/07 11:18:04;;;;;;;31.55;16.17;;;;;;;;;;5080408;28;20407;-84
2021/05/07 11:20:40;;;;;;;36.78;15.05;;;;;;;;;;5087970;28;20035;-81
2021/05/07 11:23:10;;;;;;;30.88;13.65;;;;;;;;;;5100790;28;20024;-87
2021/05/07 11:25:37;;;;;;;24.15;10.70;;;;;;;;;;5100384;28;20429;-81
2021/05/07 11:28:14;;;;;;;16.73;7.47;;;;;;;;;;5099972;28;20038;-78
2021/05/07 11:30:50;;;;;;;37.72;18.17;;;;;;;;;;5100129;28;20309;-81
2021/05/07 11:33:17;;;;;;;31.50;13.52;;;;;;;;;;5099985;28;20020;-81
2021/05/07 11:35:43;;;;;;;29.63;12.75;;;;;;;;;;5099515;28;20040;-80
2021/05/07 11:38:09;;;;;;;19.95;8.98;;;;;;;;;;5099973;28;20024;-78
2021/05/07 11:40:39;;;;;;;27.00;14.43;;;;;;;;;;5100126;28;20024;-80
2021/05/07 11:43:10;;;;;;;19.08;8.98;;;;;;;;;;5099862;28;20052;-80
2021/05/07 11:45:36;;;;;;;13.13;7.68;;;;;;;;;;5099822;28;20024;-80
2021/05/07 11:48:06;;;;;;;17.77;7.93;;;;;;;;;;5099767;28;20020;-80
2021/05/07 11:50:32;;;;;;;15.25;7.00;;;;;;;;;;5099695;28;20426;-80
2021/05/07 11:52:58;;;;;;;8.63;4.15;;;;;;;;;;5099719;28;20082;-80
2021/05/07 11:55:26;;;;;;;11.48;4.97;;;;;;;;;;5099603;28;20412;-80
2021/05/07 11:58:06;;;;;;;4.63;2.83;;;;;;;;;;5099701;28;20051;-80
2021/05/07 12:00:33;;;;;;;4.60;3.10;;;;;;;;;;5099728;28;20074;-79
2021/05/07 12:03:00;;;;;;;6.82;3.60;;;;;;;;;;5098747;28;20058;-80
2021/05/07 12:05:30;;;;;;;5.65;4.07;;;;;;;;;;5099033;28;20347;-79
2021/05/07 12:07:56;;;;;;;4.97;3.40;;;;;;;;;;5099191;28;20580;-80
2021/05/07 12:10:23;;;;;;;7.18;3.20;;;;;;;;;;5098580;28;20059;-79
2021/05/07 12:12:49;;;;;;;6.30;3.63;;;;;;;;;;5099118;28;20410;-80
2021/05/07 12:15:15;;;;;;;3.88;3.17;;;;;;;;;;5099197;28;20292;-80
2021/05/07 12:17:42;;;;;;;4.57;2.83;;;;;;;;;;5099108;28;20028;-80
2021/05/07 12:20:10;;;;;;;6.70;3.17;;;;;;;;;;5099247;28;20061;-80
2021/05/07 12:22:36;;;;;;;6.65;3.35;;;;;;;;;;5099344;28;20099;-80
2021/05/07 12:25:11;;;;;;;8.10;3.47;;;;;;;;;;5099110;28;20028;-80
2021/05/07 12:27:39;;;;;;;5.00;2.47;;;;;;;;;;5098627;28;20405;-80
2021/05/07 12:30:24;;;;;;;6.45;3.30;;;;;;;;;;5098910;28;20034;-80
2021/05/07 12:33:09;;;;;;;7.40;3.95;;;;;;;;;;5099147;28;20028;-79
2021/05/07 12:35:45;;;;;;;5.50;3.33;;;;;;;;;;5098865;28;20020;-80
2021/05/07 12:38:14;;;;;;;5.20;2.47;;;;;;;;;;5098836;28;20024;-80
2021/05/07 12:40:40;;;;;;;6.25;2.95;;;;;;;;;;5098727;28;20436;-80
2021/05/07 12:43:06;;;;;;;5.05;2.72;;;;;;;;;;5097812;28;20050;-80
2021/05/07 12:45:32;;;;;;;4.82;2.95;;;;;;;;;;5098679;28;20082;-80
2021/05/07 12:47:58;;;;;;;5.30;2.50;;;;;;;;;;5098303;28;20034;-79
2021/05/07 12:50:24;;;;;;;2.30;1.60;;;;;;;;;;5097476;28;20119;-79
2021/05/07 12:52:50;;;;;;;6.13;1.73;;;;;;;;;;5098536;28;20035;-79
2021/05/07 12:55:16;;;;;;;4.78;1.90;;;;;;;;;;5097433;28;20398;-80
2021/05/07 12:57:42;;;;;;;2.58;1.30;;;;;;;;;;5098640;28;20314;-80
2021/05/07 13:00:09;;;;;;;3.10;1.10;;;;;;;;;;5098429;28;20111;-80
2021/05/07 13:02:35;;;;;;;2.05;1.08;;;;;;;;;;5098260;28;20024;-80
2021/05/07 13:05:01;;;;;;;1.85;1.02;;;;;;;;;;5098189;28;20024;-80
2021/05/07 13:07:30;;;;;;;1.52;0.85;;;;;;;;;;5097886;28;20476;-79
2021/05/07 13:09:56;;;;;;;1.00;0.70;;;;;;;;;;5097382;28;20040;-79
2021/05/07 13:12:22;;;;;;;1.73;0.70;;;;;;;;;;5098195;28;20457;-80
2021/05/07 13:14:48;;;;;;;1.30;0.90;;;;;;;;;;5097229;28;20034;-80
2021/05/07 13:17:18;;;;;;;3.47;1.52;;;;;;;;;;5098057;28;20069;-80
2021/05/07 13:19:44;;;;;;;2.75;1.38;;;;;;;;;;5097956;28;20351;-79
2021/05/07 13:22:10;;;;;;;4.90;1.25;;;;;;;;;;5097953;28;20020;-80
2021/05/07 13:24:37;;;;;;;6.57;1.90;;;;;;;;;;5098056;28;20020;-80
2021/05/07 13:27:03;;;;;;;2.13;1.35;;;;;;;;;;5098173;28;20365;-80
2021/05/07 13:29:29;;;;;;;5.57;1.40;;;;;;;;;;5096622;28;20040;-80
2021/05/07 13:31:55;;;;;;;4.55;1.60;;;;;;;;;;5097759;28;20405;-80
2021/05/07 13:34:22;;;;;;;3.55;1.63;;;;;;;;;;5097709;28;20054;-79
2021/05/07 13:36:48;;;;;;;6.93;1.40;;;;;;;;;;5097949;28;20051;-79
2021/05/07 13:39:14;;;;;;;2.88;1.40;;;;;;;;;;5096847;28;20040;-79
2021/05/07 13:41:40;;;;;;;4.10;1.15;;;;;;;;;;5097534;28;20024;-79
2021/05/07 13:44:07;;;;;;;1.70;0.80;;;;;;;;;;5097481;28;20306;-80
2021/05/07 13:46:33;;;;;;;3.47;0.90;;;;;;;;;;5096566;28;20338;-80
2021/05/07 13:48:59;;;;;;;1.52;0.98;;;;;;;;;;5097628;28;20070;-80
2021/05/07 13:51:28;;;;;;;1.67;1.00;;;;;;;;;;5097428;28;20058;-80
2021/05/07 13:53:54;;;;;;;1.13;0.80;;;;;;;;;;5097668;28;20033;-80
2021/05/07 13:56:20;;;;;;;3.75;1.15;;;;;;;;;;5097724;28;20073;-80
2021/05/07 13:58:46;;;;;;;3.85;1.20;;;;;;;;;;5097517;28;20099;-79
2021/05/07 14:01:12;;;;;;;3.45;1.42;;;;;;;;;;5097427;28;20031;-80
2021/05/07 14:03:38;;;;;;;3.25;1.50;;;;;;;;;;5097326;28;20291;-80
2021/05/07 14:06:04;;;;;;;3.47;1.90;;;;;;;;;;5097007;28;20024;-80
2021/05/07 14:08:31;;;;;;;3.85;2.08;;;;;;;;;;5097086;28;20056;-79
2021/05/07 14:10:57;;;;;;;4.93;2.35;;;;;;;;;;5097417;28;20024;-80
2021/05/07 14:13:23;;;;;;;5.55;2.10;;;;;;;;;;5097158;28;20056;-79
2021/05/07 14:15:50;;;;;;;3.00;2.00;;;;;;;;;;5097172;28;20046;-80
2021/05/07 14:18:16;;;;;;;4.97;2.70;;;;;;;;;;5097097;28;20024;-80
2021/05/07 14:20:42;;;;;;;5.30;2.90;;;;;;;;;;5097136;28;20032;-80
2021/05/07 14:23:09;;;;;;;7.18;4.03;;;;;;;;;;5097055;28;20150;-80
2021/05/07 14:25:35;;;;;;;11.05;5.40;;;;;;;;;;5098212;28;20023;-80
2021/05/07 14:28:03;;;;;;;12.70;5.03;;;;;;;;;;5100184;28;20115;-80
2021/05/07 14:30:29;;;;;;;24.42;11.25;;;;;;;;;;5101218;28;20107;-79
2021/05/07 14:32:55;;;;;;;18.08;9.00;;;;;;;;;;5100248;28;20078;-80
2021/05/07 14:35:21;;;;;;;23.10;9.57;;;;;;;;;;5101009;28;20279;-80
2021/05/07 14:37:47;;;;;;;14.00;6.32;;;;;;;;;;5100428;28;20036;-80